Terminal Aerodrome Forecast
Issued by NWS Wilmington, OH

Current Version | Previous Version | Graphics & Text | Print | Product List | Glossary On
Versions: 1 2 3 4 5 6 7 8 9 10 11 12 13 14
000
FTUS41 KILN 172320
TAFILN
TAF
KILN 172320Z 1800/1824 VRB03KT P6SM FEW250
     FM181400 19009KT P6SM SKC=

USA.gov is the U.S. government's official web portal to all federal, state and local government web resources and services.